sensor_id;sensor_type;location;lat;lon;timestamp;temperature;humidity
12771;DHT22;6449;47.666;9.160;2023-11-19T00:02:38;6.70;99.90
12771;DHT22;6449;47.666;9.160;2023-11-19T00:07:33;6.70;99.90
12771;DHT22;6449;47.666;9.160;2023-11-19T00:12:27;6.80;99.90
12771;DHT22;6449;47.666;9.160;2023-11-19T00:17:21;6.80;99.90
12771;DHT22;6449;47.666;9.160;2023-11-19T00:22:14;6.90;99.90
12771;DHT22;6449;47.666;9.160;2023-11-19T00:27:11;6.90;99.90
12771;DHT22;6449;47.666;9.160;2023-11-19T00:32:05;6.90;99.90
12771;DHT22;6449;47.666;9.160;2023-11-19T00:36:59;6.90;99.90
12771;DHT22;6449;47.666;9.160;2023-11-19T00:41:53;6.90;99.90
12771;DHT22;6449;47.666;9.160;2023-11-19T00:46:47;7.00;99.90
12771;DHT22;6449;47.666;9.160;2023-11-19T00:51:41;7.00;99.90
12771;DHT22;6449;47.666;9.160;2023-11-19T00:56:34;7.00;99.90
12771;DHT22;6449;47.666;9.160;2023-11-19T01:01:29;7.00;99.90
12771;DHT22;6449;47.666;9.160;2023-11-19T01:06:31;7.10;99.90
12771;DHT22;6449;47.666;9.160;2023-11-19T01:11:25;7.10;99.90
12771;DHT22;6449;47.666;9.160;2023-11-19T01:16:20;7.20;99.90
12771;DHT22;6449;47.666;9.160;2023-11-19T01:21:14;7.20;99.90
12771;DHT22;6449;47.666;9.160;2023-11-19T01:26:09;7.20;99.90
12771;DHT22;6449;47.666;9.160;2023-11-19T01:31:04;7.20;99.90
12771;DHT22;6449;47.666;9.160;2023-11-19T01:36:00;7.20;99.90
12771;DHT22;6449;47.666;9.160;2023-11-19T01:40:56;7.20;99.90
12771;DHT22;6449;47.666;9.160;2023-11-19T01:45:51;7.20;99.90
12771;DHT22;6449;47.666;9.160;2023-11-19T01:50:44;7.20;99.90
12771;DHT22;6449;47.666;9.160;2023-11-19T01:55:40;7.20;99.90
12771;DHT22;6449;47.666;9.160;2023-11-19T02:00:34;7.20;99.90
12771;DHT22;6449;47.666;9.160;2023-11-19T02:05:29;7.20;99.90
12771;DHT22;6449;47.666;9.160;2023-11-19T02:10:24;7.10;99.90
12771;DHT22;6449;47.666;9.160;2023-11-19T02:15:17;7.10;99.90
12771;DHT22;6449;47.666;9.160;2023-11-19T02:20:11;7.10;99.90
12771;DHT22;6449;47.666;9.160;2023-11-19T02:25:12;7.10;99.90
12771;DHT22;6449;47.666;9.160;2023-11-19T02:30:15;7.00;99.90
12771;DHT22;6449;47.666;9.160;2023-11-19T02:35:09;7.00;99.90
12771;DHT22;6449;47.666;9.160;2023-11-19T02:40:03;7.00;99.90
12771;DHT22;6449;47.666;9.160;2023-11-19T02:45:00;7.10;99.90
12771;DHT22;6449;47.666;9.160;2023-11-19T02:50:00;7.10;99.90
12771;DHT22;6449;47.666;9.160;2023-11-19T02:54:53;7.10;99.90
12771;DHT22;6449;47.666;9.160;2023-11-19T02:59:47;7.10;99.90
12771;DHT22;6449;47.666;9.160;2023-11-19T03:04:41;7.10;99.90
12771;DHT22;6449;47.666;9.160;2023-11-19T03:09:39;7.10;99.90
12771;DHT22;6449;47.666;9.160;2023-11-19T03:14:33;7.10;99.90
12771;DHT22;6449;47.666;9.160;2023-11-19T03:19:28;7.10;99.90
12771;DHT22;6449;47.666;9.160;2023-11-19T03:24:22;7.10;99.90
12771;DHT22;6449;47.666;9.160;2023-11-19T03:29:17;7.10;99.90
12771;DHT22;6449;47.666;9.160;2023-11-19T03:34:11;7.10;99.90
12771;DHT22;6449;47.666;9.160;2023-11-19T03:39:04;7.20;99.90
12771;DHT22;6449;47.666;9.160;2023-11-19T03:43:58;7.20;99.90
12771;DHT22;6449;47.666;9.160;2023-11-19T03:48:53;7.20;99.90
12771;DHT22;6449;47.666;9.160;2023-11-19T03:53:46;7.30;99.90
12771;DHT22;6449;47.666;9.160;2023-11-19T03:58:40;7.30;99.90
12771;DHT22;6449;47.666;9.160;2023-11-19T04:03:34;7.30;99.90
12771;DHT22;6449;47.666;9.160;2023-11-19T04:08:28;7.30;99.90
12771;DHT22;6449;47.666;9.160;2023-11-19T04:13:22;7.40;99.90
12771;DHT22;6449;47.666;9.160;2023-11-19T04:18:16;7.40;99.90
12771;DHT22;6449;47.666;9.160;2023-11-19T04:23:09;7.60;99.90
12771;DHT22;6449;47.666;9.160;2023-11-19T04:28:04;7.60;99.90
12771;DHT22;6449;47.666;9.160;2023-11-19T04:32:58;7.70;99.90
12771;DHT22;6449;47.666;9.160;2023-11-19T04:37:51;7.70;99.90
12771;DHT22;6449;47.666;9.160;2023-11-19T04:42:45;7.80;99.90
12771;DHT22;6449;47.666;9.160;2023-11-19T04:47:39;7.90;99.90
12771;DHT22;6449;47.666;9.160;2023-11-19T04:52:33;8.00;99.90
12771;DHT22;6449;47.666;9.160;2023-11-19T04:57:26;8.00;99.90
12771;DHT22;6449;47.666;9.160;2023-11-19T05:02:19;8.00;99.90
12771;DHT22;6449;47.666;9.160;2023-11-19T05:07:14;8.00;99.90
12771;DHT22;6449;47.666;9.160;2023-11-19T05:12:10;8.00;99.90
12771;DHT22;6449;47.666;9.160;2023-11-19T05:17:04;8.00;99.90
12771;DHT22;6449;47.666;9.160;2023-11-19T05:22:02;8.00;99.90
12771;DHT22;6449;47.666;9.160;2023-11-19T05:26:57;8.00;99.90
12771;DHT22;6449;47.666;9.160;2023-11-19T05:31:50;8.00;99.90
12771;DHT22;6449;47.666;9.160;2023-11-19T05:36:45;8.00;99.90
12771;DHT22;6449;47.666;9.160;2023-11-19T05:41:39;8.10;99.90
12771;DHT22;6449;47.666;9.160;2023-11-19T05:46:35;8.20;99.90
12771;DHT22;6449;47.666;9.160;2023-11-19T05:51:35;8.20;99.90
12771;DHT22;6449;47.666;9.160;2023-11-19T05:56:31;8.30;99.90
12771;DHT22;6449;47.666;9.160;2023-11-19T06:01:25;8.40;99.90
12771;DHT22;6449;47.666;9.160;2023-11-19T06:06:19;8.40;99.90
12771;DHT22;6449;47.666;9.160;2023-11-19T06:11:13;8.50;99.90
12771;DHT22;6449;47.666;9.160;2023-11-19T06:16:10;8.50;99.90
12771;DHT22;6449;47.666;9.160;2023-11-19T06:21:04;8.50;99.90
12771;DHT22;6449;47.666;9.160;2023-11-19T06:26:02;8.60;99.90
12771;DHT22;6449;47.666;9.160;2023-11-19T06:30:57;8.60;99.90
12771;DHT22;6449;47.666;9.160;2023-11-19T06:35:50;8.60;99.90
12771;DHT22;6449;47.666;9.160;2023-11-19T06:40:47;8.70;99.90
12771;DHT22;6449;47.666;9.160;2023-11-19T06:45:46;8.80;99.90
12771;DHT22;6449;47.666;9.160;2023-11-19T06:50:40;8.90;99.90
12771;DHT22;6449;47.666;9.160;2023-11-19T06:55:33;9.00;99.90
12771;DHT22;6449;47.666;9.160;2023-11-19T07:00:27;9.00;99.90
12771;DHT22;6449;47.666;9.160;2023-11-19T07:05:22;9.00;99.90
12771;DHT22;6449;47.666;9.160;2023-11-19T07:10:16;9.00;99.90
12771;DHT22;6449;47.666;9.160;2023-11-19T07:15:10;9.10;99.90
12771;DHT22;6449;47.666;9.160;2023-11-19T07:20:07;9.20;99.90
12771;DHT22;6449;47.666;9.160;2023-11-19T07:25:07;9.30;99.90
12771;DHT22;6449;47.666;9.160;2023-11-19T07:30:04;9.40;99.90
12771;DHT22;6449;47.666;9.160;2023-11-19T07:34:59;9.50;99.90
12771;DHT22;6449;47.666;9.160;2023-11-19T07:39:56;9.50;99.90
12771;DHT22;6449;47.666;9.160;2023-11-19T07:44:51;9.40;99.90
12771;DHT22;6449;47.666;9.160;2023-11-19T07:49:46;9.60;99.90
12771;DHT22;6449;47.666;9.160;2023-11-19T07:54:39;9.70;99.90
12771;DHT22;6449;47.666;9.160;2023-11-19T07:59:33;9.70;99.90
12771;DHT22;6449;47.666;9.160;2023-11-19T08:04:28;9.80;99.90
12771;DHT22;6449;47.666;9.160;2023-11-19T08:09:25;9.80;99.90
12771;DHT22;6449;47.666;9.160;2023-11-19T08:14:18;9.90;99.90
12771;DHT22;6449;47.666;9.160;2023-11-19T08:19:14;9.90;99.90
12771;DHT22;6449;47.666;9.160;2023-11-19T08:24:09;9.90;99.90
12771;DHT22;6449;47.666;9.160;2023-11-19T08:29:03;9.90;99.90
12771;DHT22;6449;47.666;9.160;2023-11-19T08:33:56;9.90;99.90
12771;DHT22;6449;47.666;9.160;2023-11-19T08:38:49;10.00;99.90
12771;DHT22;6449;47.666;9.160;2023-11-19T08:43:45;10.10;99.90
12771;DHT22;6449;47.666;9.160;2023-11-19T08:48:39;10.10;99.90
12771;DHT22;6449;47.666;9.160;2023-11-19T08:53:32;10.20;99.90
12771;DHT22;6449;47.666;9.160;2023-11-19T08:58:26;10.30;99.90
12771;DHT22;6449;47.666;9.160;2023-11-19T09:03:21;10.40;99.90
12771;DHT22;6449;47.666;9.160;2023-11-19T09:08:14;10.50;99.90
12771;DHT22;6449;47.666;9.160;2023-11-19T09:13:11;10.50;99.90
12771;DHT22;6449;47.666;9.160;2023-11-19T09:18:05;10.60;99.90
12771;DHT22;6449;47.666;9.160;2023-11-19T09:22:59;10.50;99.90
12771;DHT22;6449;47.666;9.160;2023-11-19T09:27:53;10.60;99.90
12771;DHT22;6449;47.666;9.160;2023-11-19T09:32:49;10.60;99.90
12771;DHT22;6449;47.666;9.160;2023-11-19T09:37:43;10.70;99.90
12771;DHT22;6449;47.666;9.160;2023-11-19T09:42:43;10.70;99.90
12771;DHT22;6449;47.666;9.160;2023-11-19T09:47:37;10.70;99.90
12771;DHT22;6449;47.666;9.160;2023-11-19T09:52:31;10.70;99.90
12771;DHT22;6449;47.666;9.160;2023-11-19T09:57:25;10.80;99.90
12771;DHT22;6449;47.666;9.160;2023-11-19T10:02:28;10.80;99.90
12771;DHT22;6449;47.666;9.160;2023-11-19T10:07:27;10.90;99.90
12771;DHT22;6449;47.666;9.160;2023-11-19T10:12:21;11.00;99.90
12771;DHT22;6449;47.666;9.160;2023-11-19T10:17:15;11.10;99.90
12771;DHT22;6449;47.666;9.160;2023-11-19T10:22:10;11.20;99.90
12771;DHT22;6449;47.666;9.160;2023-11-19T10:27:08;11.20;99.90
12771;DHT22;6449;47.666;9.160;2023-11-19T10:32:02;11.40;99.90
12771;DHT22;6449;47.666;9.160;2023-11-19T10:37:30;11.50;99.90
12771;DHT22;6449;47.666;9.160;2023-11-19T10:42:25;11.50;99.90
12771;DHT22;6449;47.666;9.160;2023-11-19T10:47:19;11.50;99.90
12771;DHT22;6449;47.666;9.160;2023-11-19T10:52:31;11.70;99.90
12771;DHT22;6449;47.666;9.160;2023-11-19T10:57:30;11.80;99.90
12771;DHT22;6449;47.666;9.160;2023-11-19T11:02:34;12.00;99.90
12771;DHT22;6449;47.666;9.160;2023-11-19T11:07:39;11.90;99.90
12771;DHT22;6449;47.666;9.160;2023-11-19T11:12:36;11.90;99.90
12771;DHT22;6449;47.666;9.160;2023-11-19T11:17:32;11.90;99.90
12771;DHT22;6449;47.666;9.160;2023-11-19T11:22:28;11.90;99.90
12771;DHT22;6449;47.666;9.160;2023-11-19T11:33:10;11.80;99.90
12771;DHT22;6449;47.666;9.160;2023-11-19T11:38:23;11.80;99.90
12771;DHT22;6449;47.666;9.160;2023-11-19T11:48:48;12.20;99.90
12771;DHT22;6449;47.666;9.160;2023-11-19T11:53:47;12.20;99.90
12771;DHT22;6449;47.666;9.160;2023-11-19T11:58:41;12.30;99.90
12771;DHT22;6449;47.666;9.160;2023-11-19T12:03:37;12.20;99.90
12771;DHT22;6449;47.666;9.160;2023-11-19T12:08:34;12.20;99.90
12771;DHT22;6449;47.666;9.160;2023-11-19T12:13:54;12.30;99.90
12771;DHT22;6449;47.666;9.160;2023-11-19T12:18:54;12.30;99.90
12771;DHT22;6449;47.666;9.160;2023-11-19T12:23:58;12.40;99.90
12771;DHT22;6449;47.666;9.160;2023-11-19T12:29:08;12.20;99.90
12771;DHT22;6449;47.666;9.160;2023-11-19T12:34:08;12.10;99.90
12771;DHT22;6449;47.666;9.160;2023-11-19T12:39:08;12.00;99.90
12771;DHT22;6449;47.666;9.160;2023-11-19T12:44:12;11.90;99.90
12771;DHT22;6449;47.666;9.160;2023-11-19T12:49:05;11.90;99.90
12771;DHT22;6449;47.666;9.160;2023-11-19T12:53:59;11.80;99.90
12771;DHT22;6449;47.666;9.160;2023-11-19T12:58:53;11.70;99.90
12771;DHT22;6449;47.666;9.160;2023-11-19T13:03:48;11.80;99.90
12771;DHT22;6449;47.666;9.160;2023-11-19T13:08:47;11.80;99.90
12771;DHT22;6449;47.666;9.160;2023-11-19T13:13:56;11.90;99.90
12771;DHT22;6449;47.666;9.160;2023-11-19T13:18:52;12.10;99.90
12771;DHT22;6449;47.666;9.160;2023-11-19T13:23:46;12.20;99.90
12771;DHT22;6449;47.666;9.160;2023-11-19T13:28:40;12.30;99.90
12771;DHT22;6449;47.666;9.160;2023-11-19T13:33:34;12.30;99.90
12771;DHT22;6449;47.666;9.160;2023-11-19T13:38:29;12.40;99.90
12771;DHT22;6449;47.666;9.160;2023-11-19T13:43:25;12.30;99.90
12771;DHT22;6449;47.666;9.160;2023-11-19T13:48:22;12.30;99.90
12771;DHT22;6449;47.666;9.160;2023-11-19T13:53:20;12.20;99.90
12771;DHT22;6449;47.666;9.160;2023-11-19T13:58:17;12.10;99.90
12771;DHT22;6449;47.666;9.160;2023-11-19T14:03:11;12.00;99.90
12771;DHT22;6449;47.666;9.160;2023-11-19T14:08:06;12.10;99.90
12771;DHT22;6449;47.666;9.160;2023-11-19T14:13:17;12.00;99.90
12771;DHT22;6449;47.666;9.160;2023-11-19T14:18:11;11.90;99.90
12771;DHT22;6449;47.666;9.160;2023-11-19T14:23:06;12.00;99.90
12771;DHT22;6449;47.666;9.160;2023-11-19T14:28:02;11.90;99.90
12771;DHT22;6449;47.666;9.160;2023-11-19T14:33:00;12.00;99.90
12771;DHT22;6449;47.666;9.160;2023-11-19T14:37:58;12.00;99.90
12771;DHT22;6449;47.666;9.160;2023-11-19T14:42:52;12.00;99.90
12771;DHT22;6449;47.666;9.160;2023-11-19T14:47:48;11.90;99.90
12771;DHT22;6449;47.666;9.160;2023-11-19T14:52:53;11.80;99.90
12771;DHT22;6449;47.666;9.160;2023-11-19T14:57:47;11.80;99.90
12771;DHT22;6449;47.666;9.160;2023-11-19T15:02:56;11.70;99.90
12771;DHT22;6449;47.666;9.160;2023-11-19T15:07:51;11.70;99.90
12771;DHT22;6449;47.666;9.160;2023-11-19T15:12:50;11.50;99.90
12771;DHT22;6449;47.666;9.160;2023-11-19T15:17:49;11.40;99.90
12771;DHT22;6449;47.666;9.160;2023-11-19T15:22:48;11.30;99.90
12771;DHT22;6449;47.666;9.160;2023-11-19T15:27:43;11.20;99.90
12771;DHT22;6449;47.666;9.160;2023-11-19T15:32:44;11.20;99.90
12771;DHT22;6449;47.666;9.160;2023-11-19T15:37:40;11.10;99.90
12771;DHT22;6449;47.666;9.160;2023-11-19T15:42:36;11.10;99.90
12771;DHT22;6449;47.666;9.160;2023-11-19T15:47:38;11.00;99.90
12771;DHT22;6449;47.666;9.160;2023-11-19T15:52:42;11.00;99.90
12771;DHT22;6449;47.666;9.160;2023-11-19T15:57:47;10.90;99.90
12771;DHT22;6449;47.666;9.160;2023-11-19T16:03:01;10.90;99.90
12771;DHT22;6449;47.666;9.160;2023-11-19T16:08:14;10.80;99.90
12771;DHT22;6449;47.666;9.160;2023-11-19T16:13:13;10.80;99.90
12771;DHT22;6449;47.666;9.160;2023-11-19T16:18:08;10.80;99.90
12771;DHT22;6449;47.666;9.160;2023-11-19T16:23:07;10.90;99.90
12771;DHT22;6449;47.666;9.160;2023-11-19T16:28:01;10.90;99.90
12771;DHT22;6449;47.666;9.160;2023-11-19T16:33:00;10.80;99.90
12771;DHT22;6449;47.666;9.160;2023-11-19T16:38:06;10.80;99.90
12771;DHT22;6449;47.666;9.160;2023-11-19T16:43:01;10.80;99.90
12771;DHT22;6449;47.666;9.160;2023-11-19T16:47:54;10.70;99.90
12771;DHT22;6449;47.666;9.160;2023-11-19T16:52:50;10.70;99.90
12771;DHT22;6449;47.666;9.160;2023-11-19T16:57:45;10.70;99.90
12771;DHT22;6449;47.666;9.160;2023-11-19T17:02:38;10.60;99.90
12771;DHT22;6449;47.666;9.160;2023-11-19T17:07:36;10.60;99.90
12771;DHT22;6449;47.666;9.160;2023-11-19T17:12:31;10.50;99.90
12771;DHT22;6449;47.666;9.160;2023-11-19T17:17:26;10.50;99.90
12771;DHT22;6449;47.666;9.160;2023-11-19T17:22:25;10.40;99.90
12771;DHT22;6449;47.666;9.160;2023-11-19T17:27:19;10.40;99.90
12771;DHT22;6449;47.666;9.160;2023-11-19T17:32:15;10.40;99.90
12771;DHT22;6449;47.666;9.160;2023-11-19T17:37:09;10.40;99.90
12771;DHT22;6449;47.666;9.160;2023-11-19T17:42:06;10.50;99.90
12771;DHT22;6449;47.666;9.160;2023-11-19T17:47:00;10.50;99.90
12771;DHT22;6449;47.666;9.160;2023-11-19T17:51:54;10.40;99.90
12771;DHT22;6449;47.666;9.160;2023-11-19T17:56:50;10.40;99.90
12771;DHT22;6449;47.666;9.160;2023-11-19T18:01:44;10.40;99.90
12771;DHT22;6449;47.666;9.160;2023-11-19T18:06:38;10.40;99.90
12771;DHT22;6449;47.666;9.160;2023-11-19T18:11:36;10.40;99.90
12771;DHT22;6449;47.666;9.160;2023-11-19T18:16:31;10.50;99.90
12771;DHT22;6449;47.666;9.160;2023-11-19T18:21:24;10.50;99.90
12771;DHT22;6449;47.666;9.160;2023-11-19T18:26:18;10.40;99.90
12771;DHT22;6449;47.666;9.160;2023-11-19T18:31:11;10.40;99.90
12771;DHT22;6449;47.666;9.160;2023-11-19T18:36:12;10.40;99.90
12771;DHT22;6449;47.666;9.160;2023-11-19T18:41:07;10.50;99.90
12771;DHT22;6449;47.666;9.160;2023-11-19T18:46:05;10.40;99.90
12771;DHT22;6449;47.666;9.160;2023-11-19T18:51:02;10.50;99.90
12771;DHT22;6449;47.666;9.160;2023-11-19T18:55:57;10.50;99.90
12771;DHT22;6449;47.666;9.160;2023-11-19T19:00:51;10.60;99.90
12771;DHT22;6449;47.666;9.160;2023-11-19T19:05:46;10.50;99.90
12771;DHT22;6449;47.666;9.160;2023-11-19T19:10:39;10.60;99.90
12771;DHT22;6449;47.666;9.160;2023-11-19T19:15:34;10.60;99.90
12771;DHT22;6449;47.666;9.160;2023-11-19T19:20:41;10.80;99.90
12771;DHT22;6449;47.666;9.160;2023-11-19T19:25:38;10.90;99.90
12771;DHT22;6449;47.666;9.160;2023-11-19T19:30:31;11.00;99.90
12771;DHT22;6449;47.666;9.160;2023-11-19T19:35:37;11.20;99.90
12771;DHT22;6449;47.666;9.160;2023-11-19T19:40:59;11.20;99.90
12771;DHT22;6449;47.666;9.160;2023-11-19T19:46:14;11.30;99.90
12771;DHT22;6449;47.666;9.160;2023-11-19T19:51:14;11.30;99.90
12771;DHT22;6449;47.666;9.160;2023-11-19T19:56:11;11.30;99.90
12771;DHT22;6449;47.666;9.160;2023-11-19T20:01:09;11.30;99.90
12771;DHT22;6449;47.666;9.160;2023-11-19T20:06:11;11.40;99.90
12771;DHT22;6449;47.666;9.160;2023-11-19T20:11:16;11.40;99.90
12771;DHT22;6449;47.666;9.160;2023-11-19T20:16:10;11.40;99.90
12771;DHT22;6449;47.666;9.160;2023-11-19T20:21:10;11.40;99.90
12771;DHT22;6449;47.666;9.160;2023-11-19T20:26:46;11.30;99.90
12771;DHT22;6449;47.666;9.160;2023-11-19T20:31:50;11.30;99.90
12771;DHT22;6449;47.666;9.160;2023-11-19T20:37:05;11.10;99.90
12771;DHT22;6449;47.666;9.160;2023-11-19T20:42:14;11.00;99.90
12771;DHT22;6449;47.666;9.160;2023-11-19T20:47:32;11.00;99.90
12771;DHT22;6449;47.666;9.160;2023-11-19T20:52:48;11.00;99.90
12771;DHT22;6449;47.666;9.160;2023-11-19T20:57:45;11.00;99.90
12771;DHT22;6449;47.666;9.160;2023-11-19T21:02:41;11.00;99.90
12771;DHT22;6449;47.666;9.160;2023-11-19T21:07:35;11.00;99.90
12771;DHT22;6449;47.666;9.160;2023-11-19T21:12:28;11.00;99.90
12771;DHT22;6449;47.666;9.160;2023-11-19T21:17:23;11.00;99.90
12771;DHT22;6449;47.666;9.160;2023-11-19T21:22:17;10.90;99.90
12771;DHT22;6449;47.666;9.160;2023-11-19T21:27:15;10.90;99.90
12771;DHT22;6449;47.666;9.160;2023-11-19T21:32:09;10.90;99.90
12771;DHT22;6449;47.666;9.160;2023-11-19T21:37:04;10.90;99.90
12771;DHT22;6449;47.666;9.160;2023-11-19T21:41:58;10.90;99.90
12771;DHT22;6449;47.666;9.160;2023-11-19T21:46:51;10.80;99.90
12771;DHT22;6449;47.666;9.160;2023-11-19T21:51:45;10.80;99.90
12771;DHT22;6449;47.666;9.160;2023-11-19T21:56:39;10.80;99.90
12771;DHT22;6449;47.666;9.160;2023-11-19T22:01:33;10.70;99.90
12771;DHT22;6449;47.666;9.160;2023-11-19T22:06:26;10.60;99.90
12771;DHT22;6449;47.666;9.160;2023-11-19T22:11:20;10.60;99.90
12771;DHT22;6449;47.666;9.160;2023-11-19T22:16:17;10.40;99.90
12771;DHT22;6449;47.666;9.160;2023-11-19T22:21:11;10.40;99.90
12771;DHT22;6449;47.666;9.160;2023-11-19T22:26:04;10.30;99.90
12771;DHT22;6449;47.666;9.160;2023-11-19T22:30:58;10.20;99.90
12771;DHT22;6449;47.666;9.160;2023-11-19T22:35:53;10.10;99.90
12771;DHT22;6449;47.666;9.160;2023-11-19T22:40:47;10.00;99.90
12771;DHT22;6449;47.666;9.160;2023-11-19T22:45:40;9.80;99.90
12771;DHT22;6449;47.666;9.160;2023-11-19T22:50:33;9.90;99.90
12771;DHT22;6449;47.666;9.160;2023-11-19T22:55:28;9.80;99.90
12771;DHT22;6449;47.666;9.160;2023-11-19T23:00:22;9.90;99.90
12771;DHT22;6449;47.666;9.160;2023-11-19T23:05:21;9.90;99.90
12771;DHT22;6449;47.666;9.160;2023-11-19T23:10:15;9.80;99.90
12771;DHT22;6449;47.666;9.160;2023-11-19T23:15:11;9.80;99.90
12771;DHT22;6449;47.666;9.160;2023-11-19T23:20:07;9.90;99.90
12771;DHT22;6449;47.666;9.160;2023-11-19T23:25:03;9.80;99.90
12771;DHT22;6449;47.666;9.160;2023-11-19T23:29:57;9.80;99.90
12771;DHT22;6449;47.666;9.160;2023-11-19T23:34:51;9.80;99.90
12771;DHT22;6449;47.666;9.160;2023-11-19T23:39:45;9.80;99.90
12771;DHT22;6449;47.666;9.160;2023-11-19T23:44:39;9.80;99.90
12771;DHT22;6449;47.666;9.160;2023-11-19T23:49:32;9.90;99.90
12771;DHT22;6449;47.666;9.160;2023-11-19T23:54:27;9.90;99.90
12771;DHT22;6449;47.666;9.160;2023-11-19T23:59:20;9.80;99.90
